createdAt,value
2022-07-25T00:01:31.516Z,16.09
2022-07-25T00:07:03.254Z,15.93
2022-07-25T00:12:34.953Z,16.01
2022-07-25T00:18:11.017Z,16.20
2022-07-25T00:23:43.602Z,16.33
2022-07-25T00:29:15.097Z,16.38
2022-07-25T00:34:48.495Z,16.05
2022-07-25T00:39:55.183Z,16.15
2022-07-25T00:45:26.961Z,16.07
2022-07-25T00:51:00.773Z,15.97
2022-07-25T00:56:59.168Z,15.67
2022-07-25T01:02:33.651Z,15.62
2022-07-25T01:08:07.438Z,15.63
2022-07-25T01:14:09.688Z,15.74
2022-07-25T01:19:21.108Z,15.64
2022-07-25T01:25:01.008Z,15.81
2022-07-25T01:30:16.686Z,15.68
2022-07-25T01:35:49.375Z,15.67
2022-07-25T01:41:22.942Z,15.63
2022-07-25T01:46:36.777Z,15.26
2022-07-25T01:51:43.870Z,15.20
2022-07-25T01:57:17.699Z,15.18
2022-07-25T02:02:25.292Z,15.19
2022-07-25T02:07:57.469Z,15.00
2022-07-25T02:13:05.811Z,15.30
2022-07-25T02:18:57.280Z,15.27
2022-07-25T02:24:04.769Z,15.07
2022-07-25T02:29:14.934Z,15.20
2022-07-25T02:34:47.119Z,15.25
2022-07-25T02:40:19.008Z,15.02
2022-07-25T02:45:27.611Z,14.57
2022-07-25T02:50:34.868Z,14.60
2022-07-25T02:55:42.240Z,14.67
2022-07-25T03:01:16.118Z,14.60
2022-07-25T03:06:48.391Z,14.67
2022-07-25T03:12:20.739Z,14.82
2022-07-25T03:17:53.753Z,14.44
2022-07-25T03:23:27.589Z,14.47
2022-07-25T03:28:59.627Z,14.43
2022-07-25T03:34:08.670Z,14.51
2022-07-25T03:39:16.285Z,14.74
2022-07-25T03:44:27.014Z,14.72
2022-07-25T03:50:01.851Z,14.54
2022-07-25T03:55:35.140Z,14.60
2022-07-25T04:01:07.781Z,14.70
2022-07-25T04:06:45.163Z,14.72
2022-07-25T04:11:56.048Z,14.77
2022-07-25T04:17:06.699Z,14.90
2022-07-25T04:22:44.807Z,14.90
2022-07-25T04:28:18.585Z,14.90
2022-07-25T04:33:31.114Z,14.96
2022-07-25T04:39:04.019Z,15.02
2022-07-25T04:44:35.478Z,15.00
2022-07-25T04:50:08.547Z,15.11
2022-07-25T04:55:21.819Z,15.24
2022-07-25T05:00:53.727Z,15.30
2022-07-25T05:06:25.375Z,15.40
2022-07-25T05:11:58.775Z,15.50
2022-07-25T05:17:05.952Z,15.57
2022-07-25T05:22:17.186Z,15.68
2022-07-25T05:27:55.112Z,15.75
2022-07-25T05:33:08.352Z,15.86
2022-07-25T05:38:40.741Z,15.96
2022-07-25T05:44:13.757Z,16.05
2022-07-25T05:49:46.134Z,16.15
2022-07-25T05:55:18.028Z,16.25
2022-07-25T06:00:26.741Z,16.34
2022-07-25T06:05:34.036Z,16.43
2022-07-25T06:11:06.424Z,16.52
2022-07-25T06:16:41.228Z,16.61
2022-07-25T06:22:14.553Z,16.69
2022-07-25T06:27:26.121Z,16.73
2022-07-25T06:32:43.128Z,16.82
2022-07-25T06:37:51.057Z,16.85
2022-07-25T06:43:04.270Z,16.92
2022-07-25T06:48:13.228Z,17.11
2022-07-25T06:53:20.454Z,17.13
2022-07-25T06:58:33.156Z,17.30
2022-07-25T07:04:06.519Z,17.41
2022-07-25T07:09:40.493Z,17.50
2022-07-25T07:15:17.948Z,17.56
2022-07-25T07:20:52.070Z,17.70
2022-07-25T07:26:23.662Z,17.72
2022-07-25T07:31:55.496Z,17.82
2022-07-25T07:37:31.637Z,17.96
2022-07-25T07:43:06.760Z,18.07
2022-07-25T07:48:13.136Z,18.41
2022-07-25T07:53:47.341Z,18.38
2022-07-25T07:59:18.739Z,18.44
2022-07-25T08:04:50.371Z,18.61
2022-07-25T08:10:25.472Z,18.75
2022-07-25T08:16:21.072Z,18.84
2022-07-25T08:21:33.224Z,19.06
2022-07-25T08:26:46.183Z,19.25
2022-07-25T08:31:53.210Z,19.20
2022-07-25T08:36:59.855Z,19.20
2022-07-25T08:42:34.842Z,19.13
2022-07-25T08:47:41.923Z,19.60
2022-07-25T08:52:50.979Z,19.59
2022-07-25T08:58:29.079Z,19.53
2022-07-25T09:03:41.283Z,19.67
2022-07-25T09:09:12.610Z,19.87
2022-07-25T09:14:46.014Z,19.86
2022-07-25T09:20:18.656Z,20.19
2022-07-25T09:25:30.391Z,20.39
2022-07-25T09:31:05.523Z,20.41
2022-07-25T09:36:17.099Z,20.40
2022-07-25T09:41:24.501Z,20.31
2022-07-25T09:46:57.002Z,20.23
2022-07-25T09:52:06.534Z,20.22
2022-07-25T09:57:14.062Z,20.24
2022-07-25T10:03:03.473Z,20.26
2022-07-25T10:08:15.110Z,20.66
2022-07-25T10:13:46.887Z,20.78
2022-07-25T10:19:37.755Z,20.67
2022-07-25T10:25:15.987Z,20.57
2022-07-25T10:30:48.145Z,20.77
2022-07-25T10:36:06.997Z,20.86
2022-07-25T10:41:41.868Z,20.83
2022-07-25T10:47:15.604Z,20.86
2022-07-25T10:52:59.370Z,20.97
2022-07-25T10:58:18.547Z,21.08
2022-07-25T11:03:52.271Z,21.25
2022-07-25T11:09:27.767Z,21.43
2022-07-25T11:15:03.804Z,21.78
2022-07-25T11:20:35.764Z,21.70
2022-07-25T11:25:44.113Z,21.65
2022-07-25T11:30:54.999Z,21.62
2022-07-25T11:36:02.293Z,21.59
2022-07-25T11:41:11.737Z,21.76
2022-07-25T11:47:08.436Z,21.89
2022-07-25T11:52:39.859Z,22.04
2022-07-25T11:57:50.432Z,22.33
2022-07-25T12:03:07.965Z,22.34
2022-07-25T12:08:17.228Z,22.42
2022-07-25T12:13:29.049Z,22.42
2022-07-25T12:19:00.617Z,22.52
2022-07-25T12:24:32.416Z,22.57
2022-07-25T12:30:06.345Z,22.63
2022-07-25T12:35:14.777Z,22.72
2022-07-25T12:40:21.656Z,22.86
2022-07-25T12:45:31.250Z,23.02
2022-07-25T12:51:03.285Z,23.00
2022-07-25T12:56:35.064Z,22.90
2022-07-25T13:02:09.856Z,22.90
2022-07-25T13:07:17.378Z,23.04
2022-07-25T13:12:25.626Z,23.19
2022-07-25T13:17:34.604Z,23.35
2022-07-25T13:23:09.950Z,23.46
2022-07-25T13:28:41.308Z,23.55
2022-07-25T13:33:54.348Z,23.59
2022-07-25T13:39:28.583Z,23.63
2022-07-25T13:45:00.324Z,23.73
2022-07-25T13:50:33.961Z,23.73
2022-07-25T13:56:05.960Z,23.54
2022-07-25T14:01:37.923Z,23.65
2022-07-25T14:07:11.009Z,23.73
2022-07-25T14:12:42.625Z,23.75
2022-07-25T14:17:53.201Z,23.72
2022-07-25T14:23:29.986Z,23.69
2022-07-25T14:29:02.403Z,23.83
2022-07-25T14:34:38.364Z,23.78
2022-07-25T14:39:47.823Z,23.78
2022-07-25T14:44:55.330Z,23.81
2022-07-25T14:50:02.727Z,23.95
2022-07-25T14:55:12.268Z,23.87
2022-07-25T15:01:09.482Z,23.81
2022-07-25T15:06:41.549Z,23.79
2022-07-25T15:11:49.970Z,23.81
2022-07-25T15:17:21.426Z,23.86
2022-07-25T15:22:53.334Z,23.85
2022-07-25T15:28:26.943Z,24.02
2022-07-25T15:33:58.704Z,23.97
2022-07-25T15:39:30.024Z,23.95
2022-07-25T15:45:31.467Z,23.94
2022-07-25T15:50:56.399Z,23.95
2022-07-25T15:56:28.356Z,23.97
2022-07-25T16:01:36.825Z,24.00
2022-07-25T16:07:32.724Z,24.00
2022-07-25T16:12:39.896Z,23.95
2022-07-25T16:18:12.917Z,23.95
2022-07-25T16:24:09.885Z,23.91
2022-07-25T16:29:20.274Z,23.87
2022-07-25T16:34:53.909Z,23.88
2022-07-25T16:40:01.192Z,23.83
2022-07-25T16:45:13.812Z,23.78
2022-07-25T16:50:48.025Z,23.72
2022-07-25T16:55:55.264Z,23.68
2022-07-25T17:01:07.785Z,23.62
2022-07-25T17:06:45.013Z,23.57
2022-07-25T17:12:16.982Z,23.48
2022-07-25T17:17:48.708Z,23.42
2022-07-25T17:23:21.859Z,23.35
2022-07-25T17:28:54.124Z,23.27
2022-07-25T17:34:01.544Z,23.21
2022-07-25T17:39:39.328Z,23.14
2022-07-25T17:44:47.901Z,23.08
2022-07-25T17:49:55.002Z,23.01
2022-07-25T17:55:29.017Z,22.93
2022-07-25T18:01:01.675Z,22.81
2022-07-25T18:06:09.851Z,22.73
2022-07-25T18:11:23.159Z,22.65
2022-07-25T18:16:32.114Z,22.50
2022-07-25T18:21:45.459Z,22.39
2022-07-25T18:27:19.412Z,22.19
2022-07-25T18:32:32.847Z,22.01
2022-07-25T18:38:04.728Z,21.94
2022-07-25T18:43:38.153Z,21.70
2022-07-25T18:48:47.829Z,21.61
2022-07-25T18:53:55.092Z,21.47
2022-07-25T18:59:03.535Z,21.34
2022-07-25T19:04:12.880Z,21.17
2022-07-25T19:09:27.651Z,21.02
2022-07-25T19:14:36.601Z,20.93
2022-07-25T19:20:10.925Z,20.93
2022-07-25T19:25:42.993Z,20.81
2022-07-25T19:30:51.559Z,20.87
2022-07-25T19:36:00.800Z,20.67
2022-07-25T19:41:09.460Z,20.73
2022-07-25T19:46:42.731Z,20.66
2022-07-25T19:52:15.104Z,20.60
2022-07-25T19:57:46.700Z,20.48
2022-07-25T20:02:55.503Z,20.50
2022-07-25T20:08:28.815Z,20.41
2022-07-25T20:14:02.134Z,20.43
2022-07-25T20:19:40.664Z,20.44
2022-07-25T20:25:14.822Z,20.36
2022-07-25T20:30:22.249Z,20.01
2022-07-25T20:35:34.069Z,19.86
2022-07-25T20:40:48.270Z,19.88
2022-07-25T20:46:22.228Z,19.75
2022-07-25T20:51:55.420Z,19.74
2022-07-25T20:57:27.188Z,19.65
2022-07-25T21:02:34.925Z,19.65
2022-07-25T21:07:43.572Z,19.57
2022-07-25T21:12:50.275Z,19.38
2022-07-25T21:18:25.992Z,19.38
2022-07-25T21:23:35.152Z,19.42
2022-07-25T21:29:07.175Z,19.19
2022-07-25T21:35:05.980Z,19.31
2022-07-25T21:40:15.163Z,19.13
2022-07-25T21:45:22.077Z,19.05
2022-07-25T21:50:43.529Z,19.08
2022-07-25T21:56:18.158Z,18.81
2022-07-25T22:01:25.671Z,18.70
2022-07-25T22:06:32.770Z,18.51
2022-07-25T22:11:46.118Z,18.34
2022-07-25T22:16:53.922Z,18.15
2022-07-25T22:22:03.617Z,18.30
2022-07-25T22:28:01.056Z,18.21
2022-07-25T22:33:08.499Z,18.19
2022-07-25T22:38:40.558Z,18.09
2022-07-25T22:43:59.653Z,18.13
2022-07-25T22:49:09.599Z,18.19
2022-07-25T22:54:19.069Z,18.14
2022-07-25T22:59:31.181Z,17.92
2022-07-25T23:05:03.481Z,18.04
2022-07-25T23:10:35.459Z,18.08
2022-07-25T23:16:10.542Z,18.16
2022-07-25T23:21:42.667Z,18.25
2022-07-25T23:27:14.691Z,18.29
2022-07-25T23:32:48.066Z,18.31
2022-07-25T23:38:00.003Z,18.31
2022-07-25T23:43:07.088Z,18.37
2022-07-25T23:48:15.441Z,18.30
2022-07-25T23:53:25.892Z,18.19
2022-07-25T23:59:21.746Z,18.09
